sensor_id;sensor_type;location;lat;lon;timestamp;temperature;humidity
14016;DHT22;7083;48.854;9.158;2023-07-13T00:01:44;18.40;96.50
14016;DHT22;7083;48.854;9.158;2023-07-13T00:04:11;18.40;96.50
14016;DHT22;7083;48.854;9.158;2023-07-13T00:06:38;18.40;96.30
14016;DHT22;7083;48.854;9.158;2023-07-13T00:09:04;18.40;96.40
14016;DHT22;7083;48.854;9.158;2023-07-13T00:11:31;18.40;96.10
14016;DHT22;7083;48.854;9.158;2023-07-13T00:13:59;18.30;96.00
14016;DHT22;7083;48.854;9.158;2023-07-13T00:16:26;18.30;95.90
14016;DHT22;7083;48.854;9.158;2023-07-13T00:18:53;18.30;95.90
14016;DHT22;7083;48.854;9.158;2023-07-13T00:21:19;18.30;95.90
14016;DHT22;7083;48.854;9.158;2023-07-13T00:23:46;18.30;95.80
14016;DHT22;7083;48.854;9.158;2023-07-13T00:26:13;18.30;95.70
14016;DHT22;7083;48.854;9.158;2023-07-13T00:28:40;18.30;95.80
14016;DHT22;7083;48.854;9.158;2023-07-13T00:31:09;18.30;95.70
14016;DHT22;7083;48.854;9.158;2023-07-13T00:33:36;18.20;95.70
14016;DHT22;7083;48.854;9.158;2023-07-13T00:36:03;18.20;95.80
14016;DHT22;7083;48.854;9.158;2023-07-13T00:38:30;18.10;95.80
14016;DHT22;7083;48.854;9.158;2023-07-13T00:40:57;18.10;96.00
14016;DHT22;7083;48.854;9.158;2023-07-13T00:43:26;18.00;96.10
14016;DHT22;7083;48.854;9.158;2023-07-13T00:46:20;17.90;96.20
14016;DHT22;7083;48.854;9.158;2023-07-13T00:48:48;17.80;96.60
14016;DHT22;7083;48.854;9.158;2023-07-13T00:51:19;17.80;96.60
14016;DHT22;7083;48.854;9.158;2023-07-13T00:53:47;17.70;96.70
14016;DHT22;7083;48.854;9.158;2023-07-13T00:56:14;17.60;96.80
14016;DHT22;7083;48.854;9.158;2023-07-13T00:58:41;17.60;97.00
14016;DHT22;7083;48.854;9.158;2023-07-13T01:01:07;17.50;97.10
14016;DHT22;7083;48.854;9.158;2023-07-13T01:03:35;17.50;97.20
14016;DHT22;7083;48.854;9.158;2023-07-13T01:06:03;17.40;97.20
14016;DHT22;7083;48.854;9.158;2023-07-13T01:08:30;17.30;97.30
14016;DHT22;7083;48.854;9.158;2023-07-13T01:10:57;17.30;97.40
14016;DHT22;7083;48.854;9.158;2023-07-13T01:13:24;17.20;97.40
14016;DHT22;7083;48.854;9.158;2023-07-13T01:15:53;17.20;97.50
14016;DHT22;7083;48.854;9.158;2023-07-13T01:18:24;17.20;97.30
14016;DHT22;7083;48.854;9.158;2023-07-13T01:20:54;17.20;97.80
14016;DHT22;7083;48.854;9.158;2023-07-13T01:23:21;17.10;98.20
14016;DHT22;7083;48.854;9.158;2023-07-13T01:25:49;17.00;98.60
14016;DHT22;7083;48.854;9.158;2023-07-13T01:28:16;16.90;99.40
14016;DHT22;7083;48.854;9.158;2023-07-13T01:30:44;16.80;99.90
14016;DHT22;7083;48.854;9.158;2023-07-13T01:33:12;16.70;99.90
14016;DHT22;7083;48.854;9.158;2023-07-13T01:35:39;16.60;99.90
14016;DHT22;7083;48.854;9.158;2023-07-13T01:38:08;16.50;99.90
14016;DHT22;7083;48.854;9.158;2023-07-13T01:40:36;16.50;99.90
14016;DHT22;7083;48.854;9.158;2023-07-13T01:43:03;16.40;99.90
14016;DHT22;7083;48.854;9.158;2023-07-13T01:45:30;16.30;99.90
14016;DHT22;7083;48.854;9.158;2023-07-13T01:47:57;16.30;99.90
14016;DHT22;7083;48.854;9.158;2023-07-13T01:50:24;16.20;99.90
14016;DHT22;7083;48.854;9.158;2023-07-13T01:52:51;16.20;99.90
14016;DHT22;7083;48.854;9.158;2023-07-13T01:55:19;16.20;99.90
14016;DHT22;7083;48.854;9.158;2023-07-13T01:57:47;16.20;99.90
14016;DHT22;7083;48.854;9.158;2023-07-13T02:00:14;16.20;99.90
14016;DHT22;7083;48.854;9.158;2023-07-13T02:02:41;16.20;99.90
14016;DHT22;7083;48.854;9.158;2023-07-13T02:05:09;16.30;99.90
14016;DHT22;7083;48.854;9.158;2023-07-13T02:07:36;16.40;99.90
14016;DHT22;7083;48.854;9.158;2023-07-13T02:10:04;16.40;99.90
14016;DHT22;7083;48.854;9.158;2023-07-13T02:12:32;16.50;99.90
14016;DHT22;7083;48.854;9.158;2023-07-13T02:14:58;16.50;99.90
14016;DHT22;7083;48.854;9.158;2023-07-13T02:17:25;16.50;99.90
14016;DHT22;7083;48.854;9.158;2023-07-13T02:19:53;16.60;99.90
14016;DHT22;7083;48.854;9.158;2023-07-13T02:22:20;16.50;99.90
14016;DHT22;7083;48.854;9.158;2023-07-13T02:24:46;16.50;99.90
14016;DHT22;7083;48.854;9.158;2023-07-13T02:27:13;16.50;99.90
14016;DHT22;7083;48.854;9.158;2023-07-13T02:29:41;16.40;99.90
14016;DHT22;7083;48.854;9.158;2023-07-13T02:32:08;16.30;99.90
14016;DHT22;7083;48.854;9.158;2023-07-13T02:34:35;16.30;99.90
14016;DHT22;7083;48.854;9.158;2023-07-13T02:37:02;16.30;99.90
14016;DHT22;7083;48.854;9.158;2023-07-13T02:39:28;16.20;99.90
14016;DHT22;7083;48.854;9.158;2023-07-13T02:41:58;16.10;99.90
14016;DHT22;7083;48.854;9.158;2023-07-13T02:44:25;16.10;99.90
14016;DHT22;7083;48.854;9.158;2023-07-13T02:46:54;16.10;99.90
14016;DHT22;7083;48.854;9.158;2023-07-13T02:49:21;16.00;99.90
14016;DHT22;7083;48.854;9.158;2023-07-13T02:51:48;15.90;99.90
14016;DHT22;7083;48.854;9.158;2023-07-13T02:54:14;15.80;99.90
14016;DHT22;7083;48.854;9.158;2023-07-13T02:56:41;15.70;99.90
14016;DHT22;7083;48.854;9.158;2023-07-13T02:59:09;15.60;99.90
14016;DHT22;7083;48.854;9.158;2023-07-13T03:01:35;15.50;99.90
14016;DHT22;7083;48.854;9.158;2023-07-13T03:04:04;15.40;99.90
14016;DHT22;7083;48.854;9.158;2023-07-13T03:06:31;15.30;99.90
14016;DHT22;7083;48.854;9.158;2023-07-13T03:08:57;15.20;99.90
14016;DHT22;7083;48.854;9.158;2023-07-13T03:11:25;15.10;99.90
14016;DHT22;7083;48.854;9.158;2023-07-13T03:13:52;15.10;99.90
14016;DHT22;7083;48.854;9.158;2023-07-13T03:16:19;15.00;99.90
14016;DHT22;7083;48.854;9.158;2023-07-13T03:18:46;15.00;99.90
14016;DHT22;7083;48.854;9.158;2023-07-13T03:21:14;14.90;99.90
14016;DHT22;7083;48.854;9.158;2023-07-13T03:23:41;14.80;99.90
14016;DHT22;7083;48.854;9.158;2023-07-13T03:26:10;14.80;99.90
14016;DHT22;7083;48.854;9.158;2023-07-13T03:28:38;14.80;99.90
14016;DHT22;7083;48.854;9.158;2023-07-13T03:31:07;14.80;99.90
14016;DHT22;7083;48.854;9.158;2023-07-13T03:33:34;14.80;99.90
14016;DHT22;7083;48.854;9.158;2023-07-13T03:36:01;14.80;99.90
14016;DHT22;7083;48.854;9.158;2023-07-13T03:38:30;14.80;99.90
14016;DHT22;7083;48.854;9.158;2023-07-13T03:40:56;14.90;99.90
14016;DHT22;7083;48.854;9.158;2023-07-13T03:43:23;15.00;99.90
14016;DHT22;7083;48.854;9.158;2023-07-13T03:45:49;15.10;99.90
14016;DHT22;7083;48.854;9.158;2023-07-13T03:48:16;15.10;99.90
14016;DHT22;7083;48.854;9.158;2023-07-13T03:50:43;15.20;99.90
14016;DHT22;7083;48.854;9.158;2023-07-13T03:53:09;15.20;99.90
14016;DHT22;7083;48.854;9.158;2023-07-13T03:55:37;15.30;99.90
14016;DHT22;7083;48.854;9.158;2023-07-13T03:58:23;15.40;99.90
14016;DHT22;7083;48.854;9.158;2023-07-13T04:00:51;15.40;99.90
14016;DHT22;7083;48.854;9.158;2023-07-13T04:03:18;15.50;99.90
14016;DHT22;7083;48.854;9.158;2023-07-13T04:05:45;15.60;99.90
14016;DHT22;7083;48.854;9.158;2023-07-13T04:08:11;15.60;99.90
14016;DHT22;7083;48.854;9.158;2023-07-13T04:10:39;15.70;99.90
14016;DHT22;7083;48.854;9.158;2023-07-13T04:13:06;15.70;99.90
14016;DHT22;7083;48.854;9.158;2023-07-13T04:15:33;15.70;99.90
14016;DHT22;7083;48.854;9.158;2023-07-13T04:18:00;15.80;99.90
14016;DHT22;7083;48.854;9.158;2023-07-13T04:20:26;15.80;99.90
14016;DHT22;7083;48.854;9.158;2023-07-13T04:22:53;15.90;99.90
14016;DHT22;7083;48.854;9.158;2023-07-13T04:25:20;15.90;99.90
14016;DHT22;7083;48.854;9.158;2023-07-13T04:27:49;16.00;99.90
14016;DHT22;7083;48.854;9.158;2023-07-13T04:30:17;16.00;99.90
14016;DHT22;7083;48.854;9.158;2023-07-13T04:32:43;16.10;99.90
14016;DHT22;7083;48.854;9.158;2023-07-13T04:35:10;16.10;99.90
14016;DHT22;7083;48.854;9.158;2023-07-13T04:37:37;16.10;99.90
14016;DHT22;7083;48.854;9.158;2023-07-13T04:40:04;16.10;99.90
14016;DHT22;7083;48.854;9.158;2023-07-13T04:42:31;16.10;99.90
14016;DHT22;7083;48.854;9.158;2023-07-13T04:45:01;16.10;99.90
14016;DHT22;7083;48.854;9.158;2023-07-13T04:47:30;16.10;99.90
14016;DHT22;7083;48.854;9.158;2023-07-13T04:49:56;16.10;99.90
14016;DHT22;7083;48.854;9.158;2023-07-13T04:52:23;16.10;99.90
14016;DHT22;7083;48.854;9.158;2023-07-13T04:54:50;16.00;99.90
14016;DHT22;7083;48.854;9.158;2023-07-13T04:57:17;16.00;99.90
14016;DHT22;7083;48.854;9.158;2023-07-13T04:59:43;15.90;99.90
14016;DHT22;7083;48.854;9.158;2023-07-13T05:02:11;15.90;99.90
14016;DHT22;7083;48.854;9.158;2023-07-13T05:04:38;15.90;99.90
14016;DHT22;7083;48.854;9.158;2023-07-13T05:07:05;15.90;99.90
14016;DHT22;7083;48.854;9.158;2023-07-13T05:09:32;15.80;99.90
14016;DHT22;7083;48.854;9.158;2023-07-13T05:11:58;15.90;99.90
14016;DHT22;7083;48.854;9.158;2023-07-13T05:14:25;15.90;99.90
14016;DHT22;7083;48.854;9.158;2023-07-13T05:16:52;16.00;99.90
14016;DHT22;7083;48.854;9.158;2023-07-13T05:19:19;16.10;99.90
14016;DHT22;7083;48.854;9.158;2023-07-13T05:21:46;16.20;99.90
14016;DHT22;7083;48.854;9.158;2023-07-13T05:24:13;16.30;99.90
14016;DHT22;7083;48.854;9.158;2023-07-13T05:26:39;16.40;99.90
14016;DHT22;7083;48.854;9.158;2023-07-13T05:29:06;16.50;99.90
14016;DHT22;7083;48.854;9.158;2023-07-13T05:31:33;16.60;99.90
14016;DHT22;7083;48.854;9.158;2023-07-13T05:34:00;16.70;99.90
14016;DHT22;7083;48.854;9.158;2023-07-13T05:36:28;16.70;99.90
14016;DHT22;7083;48.854;9.158;2023-07-13T05:38:54;16.80;99.90
14016;DHT22;7083;48.854;9.158;2023-07-13T05:41:21;16.80;99.90
14016;DHT22;7083;48.854;9.158;2023-07-13T05:43:48;16.90;99.90
14016;DHT22;7083;48.854;9.158;2023-07-13T05:46:14;16.90;99.90
14016;DHT22;7083;48.854;9.158;2023-07-13T05:48:41;17.00;99.90
14016;DHT22;7083;48.854;9.158;2023-07-13T05:51:08;17.00;99.90
14016;DHT22;7083;48.854;9.158;2023-07-13T05:53:36;17.00;99.90
14016;DHT22;7083;48.854;9.158;2023-07-13T05:56:02;17.10;99.90
14016;DHT22;7083;48.854;9.158;2023-07-13T05:58:29;17.10;99.90
14016;DHT22;7083;48.854;9.158;2023-07-13T06:01:00;17.20;99.90
14016;DHT22;7083;48.854;9.158;2023-07-13T06:03:28;17.30;99.90
14016;DHT22;7083;48.854;9.158;2023-07-13T06:05:55;17.40;99.90
14016;DHT22;7083;48.854;9.158;2023-07-13T06:08:22;17.50;99.90
14016;DHT22;7083;48.854;9.158;2023-07-13T06:10:50;17.60;99.90
14016;DHT22;7083;48.854;9.158;2023-07-13T06:13:16;17.70;99.90
14016;DHT22;7083;48.854;9.158;2023-07-13T06:15:48;17.70;99.70
14016;DHT22;7083;48.854;9.158;2023-07-13T06:18:14;17.80;98.90
14016;DHT22;7083;48.854;9.158;2023-07-13T06:20:41;17.90;98.00
14016;DHT22;7083;48.854;9.158;2023-07-13T06:23:08;17.90;97.70
14016;DHT22;7083;48.854;9.158;2023-07-13T06:25:34;17.90;97.60
14016;DHT22;7083;48.854;9.158;2023-07-13T06:28:02;17.90;97.00
14016;DHT22;7083;48.854;9.158;2023-07-13T06:30:29;17.90;96.50
14016;DHT22;7083;48.854;9.158;2023-07-13T06:32:57;18.00;96.30
14016;DHT22;7083;48.854;9.158;2023-07-13T06:35:23;18.00;95.60
14016;DHT22;7083;48.854;9.158;2023-07-13T06:37:50;18.00;95.90
14016;DHT22;7083;48.854;9.158;2023-07-13T06:40:17;18.10;95.50
14016;DHT22;7083;48.854;9.158;2023-07-13T06:42:43;18.20;94.60
14016;DHT22;7083;48.854;9.158;2023-07-13T06:45:11;18.30;93.90
14016;DHT22;7083;48.854;9.158;2023-07-13T06:47:38;18.40;93.70
14016;DHT22;7083;48.854;9.158;2023-07-13T06:50:06;18.60;92.90
14016;DHT22;7083;48.854;9.158;2023-07-13T06:52:32;18.70;92.60
14016;DHT22;7083;48.854;9.158;2023-07-13T06:54:59;18.90;91.70
14016;DHT22;7083;48.854;9.158;2023-07-13T06:57:25;18.90;90.90
14016;DHT22;7083;48.854;9.158;2023-07-13T06:59:53;19.00;91.10
14016;DHT22;7083;48.854;9.158;2023-07-13T07:02:21;19.00;91.40
14016;DHT22;7083;48.854;9.158;2023-07-13T07:04:47;19.00;91.00
14016;DHT22;7083;48.854;9.158;2023-07-13T07:07:15;19.00;90.20
14016;DHT22;7083;48.854;9.158;2023-07-13T07:09:42;19.00;89.20
14016;DHT22;7083;48.854;9.158;2023-07-13T07:12:09;18.90;88.50
14016;DHT22;7083;48.854;9.158;2023-07-13T07:14:35;18.90;88.70
14016;DHT22;7083;48.854;9.158;2023-07-13T07:17:02;18.90;90.00
14016;DHT22;7083;48.854;9.158;2023-07-13T07:19:30;18.90;89.80
14016;DHT22;7083;48.854;9.158;2023-07-13T07:21:57;18.90;89.70
14016;DHT22;7083;48.854;9.158;2023-07-13T07:24:24;18.90;90.00
14016;DHT22;7083;48.854;9.158;2023-07-13T07:26:50;19.00;89.60
14016;DHT22;7083;48.854;9.158;2023-07-13T07:29:17;19.10;89.40
14016;DHT22;7083;48.854;9.158;2023-07-13T07:31:44;19.20;88.00
14016;DHT22;7083;48.854;9.158;2023-07-13T07:34:10;19.20;86.40
14016;DHT22;7083;48.854;9.158;2023-07-13T07:36:38;19.30;86.70
14016;DHT22;7083;48.854;9.158;2023-07-13T07:39:05;19.30;86.00
14016;DHT22;7083;48.854;9.158;2023-07-13T07:41:32;19.30;85.90
14016;DHT22;7083;48.854;9.158;2023-07-13T07:43:58;19.40;87.20
14016;DHT22;7083;48.854;9.158;2023-07-13T07:46:25;19.50;87.10
14016;DHT22;7083;48.854;9.158;2023-07-13T07:48:52;19.60;84.00
14016;DHT22;7083;48.854;9.158;2023-07-13T07:51:18;19.70;83.40
14016;DHT22;7083;48.854;9.158;2023-07-13T07:53:47;19.70;82.30
14016;DHT22;7083;48.854;9.158;2023-07-13T07:56:14;19.80;82.10
14016;DHT22;7083;48.854;9.158;2023-07-13T07:58:41;19.80;79.50
14016;DHT22;7083;48.854;9.158;2023-07-13T08:01:08;19.90;78.80
14016;DHT22;7083;48.854;9.158;2023-07-13T08:03:35;20.00;79.90
14016;DHT22;7083;48.854;9.158;2023-07-13T08:06:02;20.10;82.80
14016;DHT22;7083;48.854;9.158;2023-07-13T08:08:29;20.10;82.60
14016;DHT22;7083;48.854;9.158;2023-07-13T08:10:57;20.10;82.40
14016;DHT22;7083;48.854;9.158;2023-07-13T08:13:23;20.10;80.20
14016;DHT22;7083;48.854;9.158;2023-07-13T08:15:50;20.30;79.40
14016;DHT22;7083;48.854;9.158;2023-07-13T08:18:16;20.30;77.70
14016;DHT22;7083;48.854;9.158;2023-07-13T08:20:43;20.40;78.30
14016;DHT22;7083;48.854;9.158;2023-07-13T08:23:10;20.30;77.80
14016;DHT22;7083;48.854;9.158;2023-07-13T08:25:37;20.40;77.70
14016;DHT22;7083;48.854;9.158;2023-07-13T08:28:05;20.50;74.30
14016;DHT22;7083;48.854;9.158;2023-07-13T08:30:32;20.50;76.30
14016;DHT22;7083;48.854;9.158;2023-07-13T08:32:58;20.60;74.40
14016;DHT22;7083;48.854;9.158;2023-07-13T08:35:25;20.70;78.30
14016;DHT22;7083;48.854;9.158;2023-07-13T08:37:52;20.70;79.00
14016;DHT22;7083;48.854;9.158;2023-07-13T08:40:19;20.80;76.40
14016;DHT22;7083;48.854;9.158;2023-07-13T08:42:53;20.90;78.10
14016;DHT22;7083;48.854;9.158;2023-07-13T08:45:24;21.00;76.10
14016;DHT22;7083;48.854;9.158;2023-07-13T08:47:57;21.00;77.70
14016;DHT22;7083;48.854;9.158;2023-07-13T08:50:30;21.10;73.30
14016;DHT22;7083;48.854;9.158;2023-07-13T08:52:58;21.10;73.30
14016;DHT22;7083;48.854;9.158;2023-07-13T08:55:29;21.20;75.50
14016;DHT22;7083;48.854;9.158;2023-07-13T08:58:00;21.20;75.40
14016;DHT22;7083;48.854;9.158;2023-07-13T09:00:34;21.30;73.70
14016;DHT22;7083;48.854;9.158;2023-07-13T09:03:03;21.40;74.70
14016;DHT22;7083;48.854;9.158;2023-07-13T09:05:36;21.50;75.30
14016;DHT22;7083;48.854;9.158;2023-07-13T09:08:16;21.60;75.20
14016;DHT22;7083;48.854;9.158;2023-07-13T09:10:48;21.70;74.90
14016;DHT22;7083;48.854;9.158;2023-07-13T09:13:23;21.80;75.10
14016;DHT22;7083;48.854;9.158;2023-07-13T09:15:55;21.90;74.20
14016;DHT22;7083;48.854;9.158;2023-07-13T09:18:25;22.00;77.50
14016;DHT22;7083;48.854;9.158;2023-07-13T09:20:57;22.10;73.40
14016;DHT22;7083;48.854;9.158;2023-07-13T09:23:27;22.10;72.50
14016;DHT22;7083;48.854;9.158;2023-07-13T09:25:58;22.10;74.20
14016;DHT22;7083;48.854;9.158;2023-07-13T09:28:27;22.20;76.00
14016;DHT22;7083;48.854;9.158;2023-07-13T09:31:03;22.20;75.30
14016;DHT22;7083;48.854;9.158;2023-07-13T09:33:30;22.20;72.60
14016;DHT22;7083;48.854;9.158;2023-07-13T09:35:58;22.30;72.80
14016;DHT22;7083;48.854;9.158;2023-07-13T09:38:27;22.30;71.00
14016;DHT22;7083;48.854;9.158;2023-07-13T09:41:08;22.40;69.40
14016;DHT22;7083;48.854;9.158;2023-07-13T09:44:00;22.40;69.30
14016;DHT22;7083;48.854;9.158;2023-07-13T09:46:28;22.40;71.20
14016;DHT22;7083;48.854;9.158;2023-07-13T09:48:56;22.50;69.00
14016;DHT22;7083;48.854;9.158;2023-07-13T09:51:22;22.60;68.50
14016;DHT22;7083;48.854;9.158;2023-07-13T09:53:49;22.70;67.40
14016;DHT22;7083;48.854;9.158;2023-07-13T09:56:20;22.80;68.70
14016;DHT22;7083;48.854;9.158;2023-07-13T09:58:47;22.90;69.30
14016;DHT22;7083;48.854;9.158;2023-07-13T10:01:14;23.00;71.00
14016;DHT22;7083;48.854;9.158;2023-07-13T10:03:52;23.10;69.10
14016;DHT22;7083;48.854;9.158;2023-07-13T10:06:20;23.20;71.20
14016;DHT22;7083;48.854;9.158;2023-07-13T10:08:49;23.40;71.30
14016;DHT22;7083;48.854;9.158;2023-07-13T10:11:18;23.60;69.20
14016;DHT22;7083;48.854;9.158;2023-07-13T10:13:51;23.70;66.40
14016;DHT22;7083;48.854;9.158;2023-07-13T10:16:18;23.70;65.80
14016;DHT22;7083;48.854;9.158;2023-07-13T10:18:49;23.80;68.30
14016;DHT22;7083;48.854;9.158;2023-07-13T10:21:19;23.90;68.60
14016;DHT22;7083;48.854;9.158;2023-07-13T10:23:50;24.00;69.50
14016;DHT22;7083;48.854;9.158;2023-07-13T10:26:21;24.20;69.00
14016;DHT22;7083;48.854;9.158;2023-07-13T10:28:53;24.30;65.50
14016;DHT22;7083;48.854;9.158;2023-07-13T10:31:21;24.30;68.00
14016;DHT22;7083;48.854;9.158;2023-07-13T10:33:49;24.40;70.20
14016;DHT22;7083;48.854;9.158;2023-07-13T10:36:23;24.60;69.60
14016;DHT22;7083;48.854;9.158;2023-07-13T10:38:53;24.70;64.20
14016;DHT22;7083;48.854;9.158;2023-07-13T10:41:21;24.70;66.90
14016;DHT22;7083;48.854;9.158;2023-07-13T10:43:52;24.90;67.50
14016;DHT22;7083;48.854;9.158;2023-07-13T10:46:23;24.90;67.10
14016;DHT22;7083;48.854;9.158;2023-07-13T10:48:57;25.00;66.40
14016;DHT22;7083;48.854;9.158;2023-07-13T10:51:25;25.00;62.60
14016;DHT22;7083;48.854;9.158;2023-07-13T10:54:15;25.00;63.00
14016;DHT22;7083;48.854;9.158;2023-07-13T10:56:43;25.00;61.80
14016;DHT22;7083;48.854;9.158;2023-07-13T10:59:13;25.10;62.50
14016;DHT22;7083;48.854;9.158;2023-07-13T11:01:53;25.20;61.40
14016;DHT22;7083;48.854;9.158;2023-07-13T11:04:23;25.20;62.30
14016;DHT22;7083;48.854;9.158;2023-07-13T11:06:55;25.20;61.70
14016;DHT22;7083;48.854;9.158;2023-07-13T11:09:35;25.20;62.40
14016;DHT22;7083;48.854;9.158;2023-07-13T11:12:07;25.30;62.60
14016;DHT22;7083;48.854;9.158;2023-07-13T11:14:36;25.30;60.60
14016;DHT22;7083;48.854;9.158;2023-07-13T11:17:36;25.30;60.10
14016;DHT22;7083;48.854;9.158;2023-07-13T11:20:33;25.40;59.10
14016;DHT22;7083;48.854;9.158;2023-07-13T11:23:28;25.50;59.90
14016;DHT22;7083;48.854;9.158;2023-07-13T11:25:56;25.60;60.10
14016;DHT22;7083;48.854;9.158;2023-07-13T11:28:27;25.50;60.00
14016;DHT22;7083;48.854;9.158;2023-07-13T11:31:02;25.50;60.10
14016;DHT22;7083;48.854;9.158;2023-07-13T11:33:52;25.70;59.00
14016;DHT22;7083;48.854;9.158;2023-07-13T11:36:22;25.90;61.70
14016;DHT22;7083;48.854;9.158;2023-07-13T11:38:58;26.10;60.70
14016;DHT22;7083;48.854;9.158;2023-07-13T11:41:28;26.50;60.30
14016;DHT22;7083;48.854;9.158;2023-07-13T11:44:06;27.00;57.10
14016;DHT22;7083;48.854;9.158;2023-07-13T11:46:33;27.10;56.20
14016;DHT22;7083;48.854;9.158;2023-07-13T11:48:59;27.10;55.70
14016;DHT22;7083;48.854;9.158;2023-07-13T11:51:29;27.00;55.90
14016;DHT22;7083;48.854;9.158;2023-07-13T11:54:02;26.90;57.20
14016;DHT22;7083;48.854;9.158;2023-07-13T11:56:30;26.80;59.80
14016;DHT22;7083;48.854;9.158;2023-07-13T11:59:03;26.80;57.50
14016;DHT22;7083;48.854;9.158;2023-07-13T12:01:31;26.80;57.60
14016;DHT22;7083;48.854;9.158;2023-07-13T12:03:59;26.90;57.60
14016;DHT22;7083;48.854;9.158;2023-07-13T12:06:29;26.90;55.70
14016;DHT22;7083;48.854;9.158;2023-07-13T12:08:57;27.20;55.30
14016;DHT22;7083;48.854;9.158;2023-07-13T12:11:25;27.70;55.90
14016;DHT22;7083;48.854;9.158;2023-07-13T12:13:51;27.90;54.80
14016;DHT22;7083;48.854;9.158;2023-07-13T12:16:25;27.70;56.60
14016;DHT22;7083;48.854;9.158;2023-07-13T12:18:53;27.70;56.90
14016;DHT22;7083;48.854;9.158;2023-07-13T12:21:24;27.90;53.10
14016;DHT22;7083;48.854;9.158;2023-07-13T12:23:54;28.00;53.20
14016;DHT22;7083;48.854;9.158;2023-07-13T12:26:20;28.00;53.90
14016;DHT22;7083;48.854;9.158;2023-07-13T12:28:49;27.90;52.90
14016;DHT22;7083;48.854;9.158;2023-07-13T12:31:25;28.00;56.40
14016;DHT22;7083;48.854;9.158;2023-07-13T12:34:00;28.20;52.90
14016;DHT22;7083;48.854;9.158;2023-07-13T12:36:31;28.60;55.10
14016;DHT22;7083;48.854;9.158;2023-07-13T12:39:04;29.00;51.50
14016;DHT22;7083;48.854;9.158;2023-07-13T12:41:38;29.10;50.10
14016;DHT22;7083;48.854;9.158;2023-07-13T12:44:07;29.10;50.90
14016;DHT22;7083;48.854;9.158;2023-07-13T12:46:35;29.10;50.80
14016;DHT22;7083;48.854;9.158;2023-07-13T12:49:06;29.30;51.30
14016;DHT22;7083;48.854;9.158;2023-07-13T12:51:33;29.50;50.40
14016;DHT22;7083;48.854;9.158;2023-07-13T12:54:13;29.70;52.20
14016;DHT22;7083;48.854;9.158;2023-07-13T12:56:41;30.00;50.30
14016;DHT22;7083;48.854;9.158;2023-07-13T12:59:16;30.40;50.10
14016;DHT22;7083;48.854;9.158;2023-07-13T13:01:43;30.80;49.00
14016;DHT22;7083;48.854;9.158;2023-07-13T13:04:10;31.60;47.80
14016;DHT22;7083;48.854;9.158;2023-07-13T13:06:38;31.70;45.90
14016;DHT22;7083;48.854;9.158;2023-07-13T13:09:11;31.50;45.90
14016;DHT22;7083;48.854;9.158;2023-07-13T13:11:38;31.40;47.10
14016;DHT22;7083;48.854;9.158;2023-07-13T13:14:06;31.40;46.20
14016;DHT22;7083;48.854;9.158;2023-07-13T13:16:34;31.50;46.00
14016;DHT22;7083;48.854;9.158;2023-07-13T13:19:13;31.30;51.30
14016;DHT22;7083;48.854;9.158;2023-07-13T13:21:41;31.90;46.20
14016;DHT22;7083;48.854;9.158;2023-07-13T13:24:12;32.40;44.80
14016;DHT22;7083;48.854;9.158;2023-07-13T13:26:40;31.80;45.00
14016;DHT22;7083;48.854;9.158;2023-07-13T13:29:11;32.10;45.20
14016;DHT22;7083;48.854;9.158;2023-07-13T13:31:40;32.00;49.30
14016;DHT22;7083;48.854;9.158;2023-07-13T13:34:08;31.90;50.50
14016;DHT22;7083;48.854;9.158;2023-07-13T13:36:35;32.60;46.40
14016;DHT22;7083;48.854;9.158;2023-07-13T13:39:04;33.60;46.30
14016;DHT22;7083;48.854;9.158;2023-07-13T13:41:33;34.20;43.70
14016;DHT22;7083;48.854;9.158;2023-07-13T13:44:00;34.80;43.90
14016;DHT22;7083;48.854;9.158;2023-07-13T13:46:26;35.90;44.50
14016;DHT22;7083;48.854;9.158;2023-07-13T13:48:55;37.40;40.00
14016;DHT22;7083;48.854;9.158;2023-07-13T13:51:23;38.30;38.00
14016;DHT22;7083;48.854;9.158;2023-07-13T13:53:51;38.40;37.00
14016;DHT22;7083;48.854;9.158;2023-07-13T13:56:19;38.40;37.80
14016;DHT22;7083;48.854;9.158;2023-07-13T13:58:47;39.00;39.50
14016;DHT22;7083;48.854;9.158;2023-07-13T14:01:18;38.90;39.90
14016;DHT22;7083;48.854;9.158;2023-07-13T14:03:46;39.70;37.20
14016;DHT22;7083;48.854;9.158;2023-07-13T14:06:15;39.30;39.10
14016;DHT22;7083;48.854;9.158;2023-07-13T14:08:42;39.40;36.10
14016;DHT22;7083;48.854;9.158;2023-07-13T14:11:11;39.70;35.70
14016;DHT22;7083;48.854;9.158;2023-07-13T14:13:42;39.70;35.80
14016;DHT22;7083;48.854;9.158;2023-07-13T14:16:15;39.30;39.60
14016;DHT22;7083;48.854;9.158;2023-07-13T14:18:43;39.10;40.00
14016;DHT22;7083;48.854;9.158;2023-07-13T14:21:12;39.90;37.70
14016;DHT22;7083;48.854;9.158;2023-07-13T14:23:40;40.80;35.20
14016;DHT22;7083;48.854;9.158;2023-07-13T14:26:11;41.50;36.90
14016;DHT22;7083;48.854;9.158;2023-07-13T14:28:42;41.30;35.10
14016;DHT22;7083;48.854;9.158;2023-07-13T14:31:09;42.20;33.30
14016;DHT22;7083;48.854;9.158;2023-07-13T14:33:37;42.10;33.40
14016;DHT22;7083;48.854;9.158;2023-07-13T14:36:26;42.50;32.60
14016;DHT22;7083;48.854;9.158;2023-07-13T14:38:53;42.10;33.10
14016;DHT22;7083;48.854;9.158;2023-07-13T14:41:20;42.40;33.30
14016;DHT22;7083;48.854;9.158;2023-07-13T14:43:47;42.60;32.80
14016;DHT22;7083;48.854;9.158;2023-07-13T14:46:21;42.70;33.30
14016;DHT22;7083;48.854;9.158;2023-07-13T14:48:59;42.70;34.00
14016;DHT22;7083;48.854;9.158;2023-07-13T14:51:27;42.60;34.60
14016;DHT22;7083;48.854;9.158;2023-07-13T14:53:53;42.70;33.40
14016;DHT22;7083;48.854;9.158;2023-07-13T14:56:20;42.70;35.20
14016;DHT22;7083;48.854;9.158;2023-07-13T14:58:47;42.70;33.20
14016;DHT22;7083;48.854;9.158;2023-07-13T15:01:14;43.30;32.40
14016;DHT22;7083;48.854;9.158;2023-07-13T15:03:44;43.30;32.50
14016;DHT22;7083;48.854;9.158;2023-07-13T15:06:13;43.10;33.40
14016;DHT22;7083;48.854;9.158;2023-07-13T15:08:40;42.70;34.80
14016;DHT22;7083;48.854;9.158;2023-07-13T15:11:08;42.90;32.40
14016;DHT22;7083;48.854;9.158;2023-07-13T15:13:37;42.80;32.50
14016;DHT22;7083;48.854;9.158;2023-07-13T15:16:05;42.80;32.80
14016;DHT22;7083;48.854;9.158;2023-07-13T15:18:36;42.40;37.10
14016;DHT22;7083;48.854;9.158;2023-07-13T15:21:08;41.90;36.70
14016;DHT22;7083;48.854;9.158;2023-07-13T15:23:37;42.20;38.20
14016;DHT22;7083;48.854;9.158;2023-07-13T15:26:04;42.70;33.70
14016;DHT22;7083;48.854;9.158;2023-07-13T15:28:32;43.00;33.40
14016;DHT22;7083;48.854;9.158;2023-07-13T15:30:59;42.40;35.60
14016;DHT22;7083;48.854;9.158;2023-07-13T15:33:28;42.10;37.90
14016;DHT22;7083;48.854;9.158;2023-07-13T15:35:55;41.40;34.60
14016;DHT22;7083;48.854;9.158;2023-07-13T15:38:25;41.40;33.50
14016;DHT22;7083;48.854;9.158;2023-07-13T15:40:53;40.80;34.70
14016;DHT22;7083;48.854;9.158;2023-07-13T15:43:22;40.90;34.50
14016;DHT22;7083;48.854;9.158;2023-07-13T15:45:48;41.50;34.30
14016;DHT22;7083;48.854;9.158;2023-07-13T15:48:18;41.90;34.50
14016;DHT22;7083;48.854;9.158;2023-07-13T15:50:48;42.00;34.60
14016;DHT22;7083;48.854;9.158;2023-07-13T15:53:18;42.00;38.10
14016;DHT22;7083;48.854;9.158;2023-07-13T15:55:45;42.50;34.10